8TN8 weather

Field of Dreams Ultralightport
Burlison, Tennessee, United States

Public forecast

Using degrees Fahrenheit for public forecast. Weather courtesy of forecast.io.

Closest aviation weather report (METAR) to Field of Dreams Ultralightport

Closest report is Millington-Memphis Airport, 11.1 nm (20.6 km) S. Retrieved 2019/10/15 09:35 UTC (16 minutes ago):

KNQA 150935Z AUTO 00000KT 10SM BKN031 14/12 A3000 RMK A01

Closest aviation forecast (TAF) to Field of Dreams Ultralightport

Closest forecast is Memphis International Airport, 30.4 nm (56.3 km) S. Retrieved 2019/10/15 06:22 UTC (3 hours ago):

TAF KMEM 150520Z 1506/1612 14004KT P6SM SCT120 BKN250 FM150800 16004KT P6SM SCT025 BKN035 TEMPO 1512/1516 BKN025 FM151600 18006KT P6SM BKN025 BKN035 FM152000 19008KT P6SM VCSH BKN025 OVC035 FM160400 VRB03KT P6SM -SHRA SCT007 OVC015 FM160700 34011KT P6SM BKN050